Time;durP1;ratioP1;P1;durP2;ratioP2;P2;SDS_P1;SDS_P2;PMS_P1;PMS_P2;Temp;Humidity;BMP_temperature;BMP_pressure;BME280_temperature;BME280_humidity;BME280_pressure;Samples;Min_cycle;Max_cycle;Signal;HPM_P1;HPM_P2
2023/09/06 00:00:48;;;;;;;6.63;6.13;;;18.00;99.90;;;;;;5039924;28;20848;-58
2023/09/06 00:03:17;;;;;;;7.30;6.60;;;18.00;99.90;;;;;;5043517;28;20949;-59
2023/09/06 00:05:46;;;;;;;6.83;6.30;;;18.00;99.90;;;;;;5037629;28;20497;-59
2023/09/06 00:08:16;;;;;;;6.50;6.00;;;18.00;99.90;;;;;;5040437;28;20516;-58
2023/09/06 00:10:45;;;;;;;6.40;5.90;;;18.00;99.90;;;;;;5040284;28;20824;-58
2023/09/06 00:13:14;;;;;;;7.13;6.53;;;17.90;99.90;;;;;;5028055;28;20511;-59
2023/09/06 00:15:44;;;;;;;6.13;5.73;;;17.90;99.90;;;;;;5039116;28;20526;-58
2023/09/06 00:18:13;;;;;;;6.67;6.10;;;17.90;99.90;;;;;;5040831;28;20539;-59
2023/09/06 00:20:41;;;;;;;6.13;5.63;;;17.90;99.90;;;;;;5033588;28;20573;-59
2023/09/06 00:23:12;;;;;;;6.60;6.10;;;17.80;99.90;;;;;;5039336;28;20502;-59
2023/09/06 00:25:40;;;;;;;6.37;5.87;;;17.90;99.90;;;;;;5034281;28;20855;-58
2023/09/06 00:28:08;;;;;;;6.17;5.77;;;17.90;99.90;;;;;;5040542;28;20492;-59
2023/09/06 00:30:36;;;;;;;6.97;6.27;;;17.80;99.90;;;;;;5030199;28;20481;-57
2023/09/06 00:33:05;;;;;;;6.37;5.87;;;17.80;99.90;;;;;;5034875;28;20478;-59
2023/09/06 00:35:35;;;;;;;6.50;5.90;;;17.80;99.90;;;;;;5037418;28;20591;-59
2023/09/06 00:38:05;;;;;;;5.60;5.20;;;17.80;99.90;;;;;;5031533;28;20466;-59
2023/09/06 00:40:36;;;;;;;6.67;6.07;;;17.80;99.90;;;;;;5030975;28;20482;-59
2023/09/06 00:43:05;;;;;;;5.90;5.50;;;17.80;99.90;;;;;;5030517;28;20824;-57
2023/09/06 00:45:38;;;;;;;6.10;5.70;;;17.70;99.90;;;;;;5026590;28;21284;-59
2023/09/06 00:48:08;;;;;;;6.83;6.07;;;17.70;99.90;;;;;;5037258;28;20524;-58
2023/09/06 00:50:38;;;;;;;6.40;5.90;;;17.70;99.90;;;;;;5039915;28;20475;-58
2023/09/06 00:53:08;;;;;;;6.30;5.83;;;17.70;99.90;;;;;;5035592;28;20583;-58
2023/09/06 00:55:37;;;;;;;6.70;6.10;;;17.70;99.90;;;;;;5034008;28;21073;-58
2023/09/06 00:58:06;;;;;;;6.00;5.50;;;17.60;99.90;;;;;;5034770;28;20499;-58
2023/09/06 01:00:35;;;;;;;7.07;6.40;;;17.60;99.90;;;;;;5037267;28;20482;-59
2023/09/06 01:03:04;;;;;;;6.37;5.90;;;17.60;99.90;;;;;;5029223;28;20565;-59
2023/09/06 01:05:44;;;;;;;6.03;5.53;;;17.50;99.90;;;;;;5039674;28;20498;-58
2023/09/06 01:08:16;;;;;;;5.90;5.50;;;17.50;99.90;;;;;;5041192;28;20493;-59
2023/09/06 01:10:44;;;;;;;6.80;6.20;;;17.50;99.90;;;;;;5033221;28;20987;-57
2023/09/06 01:13:12;;;;;;;6.50;6.00;;;17.40;99.90;;;;;;5035637;28;21015;-58
2023/09/06 01:15:45;;;;;;;6.30;5.90;;;17.40;99.90;;;;;;5041953;28;20497;-59
2023/09/06 01:18:15;;;;;;;6.00;5.60;;;17.30;99.90;;;;;;5039742;28;20476;-59
2023/09/06 01:20:52;;;;;;;5.90;5.50;;;17.30;99.90;;;;;;5039732;28;20466;-59
2023/09/06 01:23:34;;;;;;;6.33;5.83;;;17.30;99.90;;;;;;5040401;28;20874;-59
2023/09/06 01:26:02;;;;;;;5.83;5.43;;;17.30;99.90;;;;;;5034095;28;20502;-59
2023/09/06 01:28:31;;;;;;;6.60;6.13;;;17.30;99.90;;;;;;5034407;28;20510;-59
2023/09/06 01:31:00;;;;;;;6.10;5.70;;;17.20;99.90;;;;;;5033354;28;20471;-59
2023/09/06 01:33:29;;;;;;;6.10;5.60;;;17.20;99.90;;;;;;5035918;28;21010;-57
2023/09/06 01:35:57;;;;;;;5.60;5.20;;;17.20;99.90;;;;;;5034119;28;20516;-58
2023/09/06 01:38:25;;;;;;;5.80;5.40;;;17.10;99.90;;;;;;5031717;28;20773;-58
2023/09/06 01:40:55;;;;;;;5.93;5.43;;;17.10;99.90;;;;;;5026135;28;20820;-58
2023/09/06 01:43:23;;;;;;;6.50;6.00;;;17.10;99.90;;;;;;5030980;28;20466;-59
2023/09/06 01:45:51;;;;;;;6.10;5.60;;;17.00;99.90;;;;;;5032529;28;20643;-59
2023/09/06 01:48:20;;;;;;;6.80;6.20;;;17.00;99.90;;;;;;5030839;28;20548;-58
2023/09/06 01:50:49;;;;;;;5.73;5.33;;;17.00;99.90;;;;;;5040730;28;20502;-58
2023/09/06 01:53:16;;;;;;;5.83;5.43;;;17.00;99.90;;;;;;5032407;28;20996;-58
2023/09/06 01:55:45;;;;;;;5.80;5.30;;;16.90;99.90;;;;;;5036567;28;20504;-58
2023/09/06 01:58:14;;;;;;;6.00;5.50;;;16.90;99.90;;;;;;5040544;28;20458;-58
2023/09/06 02:00:44;;;;;;;5.93;5.53;;;16.90;99.90;;;;;;5039790;28;20526;-57
2023/09/06 02:03:15;;;;;;;5.97;5.57;;;16.90;99.90;;;;;;5025685;28;21162;-59
2023/09/06 02:05:44;;;;;;;5.50;5.10;;;16.80;99.90;;;;;;5040497;28;20871;-59
2023/09/06 02:08:13;;;;;;;6.07;5.57;;;16.80;99.90;;;;;;5040339;28;20474;-58
2023/09/06 02:10:42;;;;;;;6.50;6.00;;;16.80;99.90;;;;;;5035687;28;20496;-59
2023/09/06 02:13:10;;;;;;;6.67;6.07;;;16.70;99.90;;;;;;5032768;28;20470;-59
2023/09/06 02:15:39;;;;;;;6.47;5.97;;;16.80;99.90;;;;;;5038732;28;20526;-59
2023/09/06 02:18:07;;;;;;;5.70;5.30;;;16.70;99.90;;;;;;5040635;28;20482;-59
2023/09/06 02:20:35;;;;;;;6.33;5.83;;;16.70;99.90;;;;;;5042019;28;20505;-58
2023/09/06 02:23:04;;;;;;;6.90;6.30;;;16.70;99.90;;;;;;5041795;28;20479;-59
2023/09/06 02:25:33;;;;;;;6.00;5.60;;;16.70;99.90;;;;;;5037441;28;20513;-58
2023/09/06 02:28:04;;;;;;;6.20;5.73;;;16.70;99.90;;;;;;5036973;28;20801;-58
2023/09/06 02:30:32;;;;;;;6.50;6.10;;;16.60;99.90;;;;;;5043607;28;21058;-58
2023/09/06 02:33:04;;;;;;;6.03;5.53;;;16.60;99.90;;;;;;5031815;28;20599;-58
2023/09/06 02:35:40;;;;;;;6.20;5.73;;;16.60;99.90;;;;;;5040829;28;20509;-58
2023/09/06 02:38:08;;;;;;;6.70;6.20;;;16.60;99.90;;;;;;5034081;28;20470;-57
2023/09/06 02:40:36;;;;;;;6.27;5.83;;;16.60;99.90;;;;;;5038793;28;20473;-59
2023/09/06 02:43:05;;;;;;;6.93;6.30;;;16.50;99.90;;;;;;5037652;28;20481;-58
2023/09/06 02:45:37;;;;;;;6.40;5.80;;;16.50;99.90;;;;;;5035762;28;20594;-59
2023/09/06 02:48:12;;;;;;;6.93;6.43;;;16.50;99.90;;;;;;5041035;28;20475;-59
2023/09/06 02:50:40;;;;;;;6.30;5.80;;;16.40;99.90;;;;;;5043331;28;20470;-59
2023/09/06 02:53:19;;;;;;;5.77;5.30;;;16.40;99.90;;;;;;5042797;28;20466;-59
2023/09/06 02:55:51;;;;;;;6.27;5.77;;;16.40;99.90;;;;;;5035204;28;20494;-58
2023/09/06 02:58:23;;;;;;;6.27;5.87;;;16.40;99.90;;;;;;5039463;28;20581;-58
2023/09/06 03:00:55;;;;;;;6.50;5.90;;;16.30;99.90;;;;;;5038850;28;20493;-58
2023/09/06 03:03:27;;;;;;;5.97;5.57;;;16.30;99.90;;;;;;5041531;28;20470;-59
2023/09/06 03:05:57;;;;;;;6.00;5.60;;;16.30;99.90;;;;;;5049223;28;20497;-57
2023/09/06 03:08:27;;;;;;;6.57;6.07;;;16.30;99.90;;;;;;5061825;28;20540;-59
2023/09/06 03:10:57;;;;;;;6.10;5.53;;;16.30;99.90;;;;;;5054720;28;20469;-59
2023/09/06 03:13:24;;;;;;;6.40;5.90;;;16.30;99.90;;;;;;5055573;28;20473;-58
2023/09/06 03:15:52;;;;;;;6.33;5.90;;;16.30;99.90;;;;;;5060325;28;20946;-58
2023/09/06 03:18:22;;;;;;;5.67;5.27;;;16.30;99.90;;;;;;5062787;28;20547;-58
2023/09/06 03:20:55;;;;;;;6.20;5.70;;;16.30;99.90;;;;;;5058761;28;20465;-59
2023/09/06 03:23:24;;;;;;;5.97;5.47;;;16.30;99.90;;;;;;5061115;28;21256;-58
2023/09/06 03:25:54;;;;;;;5.90;5.50;;;16.30;99.90;;;;;;5047547;28;20486;-58
2023/09/06 03:28:25;;;;;;;6.27;5.77;;;16.30;99.90;;;;;;5037375;28;20567;-59
2023/09/06 03:30:58;;;;;;;6.13;5.53;;;16.20;99.90;;;;;;5039222;28;20565;-58
2023/09/06 03:33:27;;;;;;;6.70;6.20;;;16.20;99.90;;;;;;5040433;28;20462;-59
2023/09/06 03:35:56;;;;;;;6.57;5.73;;;16.20;99.90;;;;;;5036477;28;20534;-58
2023/09/06 03:38:26;;;;;;;5.93;5.43;;;16.20;99.90;;;;;;5041845;28;21125;-59
2023/09/06 03:41:01;;;;;;;6.60;6.00;;;16.10;99.90;;;;;;5037763;28;20478;-59
2023/09/06 03:43:32;;;;;;;6.37;5.77;;;16.10;99.90;;;;;;5039502;28;20495;-59
2023/09/06 03:46:04;;;;;;;6.73;6.17;;;16.10;99.90;;;;;;5039935;28;20486;-59
2023/09/06 03:48:33;;;;;;;6.10;5.70;;;16.10;99.90;;;;;;5039743;28;20962;-59
2023/09/06 03:51:04;;;;;;;5.93;5.53;;;16.00;99.90;;;;;;5041471;28;20944;-59
2023/09/06 03:53:33;;;;;;;6.37;5.90;;;16.00;99.90;;;;;;5036513;28;20491;-59
2023/09/06 03:56:01;;;;;;;6.20;5.73;;;16.00;99.90;;;;;;5030445;28;20700;-59
2023/09/06 03:58:30;;;;;;;6.13;5.63;;;16.00;99.90;;;;;;5028226;28;20475;-58
2023/09/06 04:00:59;;;;;;;6.33;5.83;;;16.00;99.90;;;;;;5034107;28;20540;-59
2023/09/06 04:03:27;;;;;;;6.10;5.70;;;16.00;99.90;;;;;;5032171;28;20586;-59
2023/09/06 04:05:57;;;;;;;6.63;6.10;;;15.90;99.90;;;;;;5030863;28;20495;-59
2023/09/06 04:08:28;;;;;;;6.00;5.50;;;15.90;99.90;;;;;;5034238;28;20565;-59
2023/09/06 04:10:57;;;;;;;6.30;5.80;;;16.00;99.90;;;;;;5030972;28;20486;-59
2023/09/06 04:13:25;;;;;;;6.20;5.70;;;15.90;99.90;;;;;;5031957;28;21295;-59
2023/09/06 04:15:53;;;;;;;6.47;6.00;;;15.90;99.90;;;;;;5029060;28;21011;-59
2023/09/06 04:18:21;;;;;;;6.20;5.70;;;15.90;99.90;;;;;;5035022;28;20836;-58
2023/09/06 04:20:50;;;;;;;6.77;6.27;;;15.90;99.90;;;;;;5039348;28;20809;-58
2023/09/06 04:23:18;;;;;;;6.80;6.10;;;15.90;99.90;;;;;;5040239;28;20473;-59
2023/09/06 04:25:48;;;;;;;6.37;5.87;;;15.80;99.90;;;;;;5038161;28;20619;-59
2023/09/06 04:28:20;;;;;;;6.53;6.10;;;15.80;99.90;;;;;;5033285;28;20552;-59
2023/09/06 04:30:48;;;;;;;6.67;6.17;;;15.80;99.90;;;;;;5032573;28;20504;-59
2023/09/06 04:33:16;;;;;;;6.40;5.80;;;15.80;99.90;;;;;;5034637;28;20474;-59
2023/09/06 04:35:46;;;;;;;6.20;5.80;;;15.70;99.90;;;;;;5036898;28;21010;-58
2023/09/06 04:38:15;;;;;;;6.23;5.83;;;15.70;99.90;;;;;;5041534;28;20503;-58
2023/09/06 04:40:44;;;;;;;6.27;5.77;;;15.70;99.90;;;;;;5034622;28;20471;-58
2023/09/06 04:43:15;;;;;;;6.40;5.90;;;15.70;99.90;;;;;;5031049;28;20497;-58
2023/09/06 04:45:44;;;;;;;6.40;5.90;;;15.70;99.90;;;;;;5026679;28;20612;-58
2023/09/06 04:48:16;;;;;;;6.13;5.73;;;15.70;99.90;;;;;;5035917;28;20467;-59
2023/09/06 04:50:45;;;;;;;6.43;5.90;;;15.60;99.90;;;;;;5033717;28;20478;-58
2023/09/06 04:53:17;;;;;;;6.93;6.30;;;15.70;99.90;;;;;;5037462;28;20559;-58
2023/09/06 04:55:46;;;;;;;6.40;5.90;;;15.60;99.90;;;;;;5027713;28;23532;-57
2023/09/06 04:58:15;;;;;;;6.80;6.30;;;15.60;99.90;;;;;;5038964;28;20516;-58
2023/09/06 05:00:47;;;;;;;6.50;6.00;;;15.60;99.90;;;;;;5039305;28;20474;-57
2023/09/06 05:03:17;;;;;;;6.50;6.00;;;15.60;99.90;;;;;;5034739;28;20467;-58
2023/09/06 05:05:48;;;;;;;5.83;5.43;;;15.60;99.90;;;;;;5039234;28;20486;-58
2023/09/06 05:08:16;;;;;;;6.17;5.77;;;15.60;99.90;;;;;;5030806;28;20478;-58
2023/09/06 05:10:44;;;;;;;6.93;6.43;;;15.60;99.90;;;;;;5035704;28;20620;-58
2023/09/06 05:13:13;;;;;;;7.87;6.40;;;15.70;99.90;;;;;;5039768;28;20490;-58
2023/09/06 05:15:43;;;;;;;10.50;7.03;;;15.70;99.90;;;;;;5042417;28;20501;-58
2023/09/06 05:18:11;;;;;;;6.77;6.27;;;15.60;99.90;;;;;;5042137;28;20541;-58
2023/09/06 05:20:40;;;;;;;7.03;6.37;;;15.70;99.90;;;;;;5031363;28;20980;-59
2023/09/06 05:23:09;;;;;;;7.40;6.80;;;15.70;99.90;;;;;;5037823;28;20466;-59
2023/09/06 05:25:38;;;;;;;6.63;6.10;;;15.70;99.90;;;;;;5042813;28;20490;-59
2023/09/06 05:28:08;;;;;;;7.07;6.47;;;15.70;99.90;;;;;;5036620;28;20468;-58
2023/09/06 05:30:38;;;;;;;6.90;6.40;;;15.70;99.90;;;;;;5027163;28;20463;-58
2023/09/06 05:33:08;;;;;;;6.93;6.30;;;15.70;99.90;;;;;;5026155;28;20575;-57
2023/09/06 05:35:36;;;;;;;8.07;7.30;;;15.80;99.90;;;;;;5018119;28;20500;-59
2023/09/06 05:38:04;;;;;;;7.10;6.60;;;15.80;99.90;;;;;;5020323;28;20636;-58
2023/09/06 05:40:34;;;;;;;8.17;7.57;;;15.90;99.90;;;;;;5021811;28;20470;-58
2023/09/06 05:43:03;;;;;;;7.60;6.87;;;15.90;99.90;;;;;;5019540;28;20470;-58
2023/09/06 05:45:32;;;;;;;10.30;7.17;;;15.90;99.90;;;;;;5028376;28;20644;-58
2023/09/06 05:48:00;;;;;;;11.13;7.10;;;15.90;99.90;;;;;;5026312;28;20470;-60
2023/09/06 05:50:29;;;;;;;7.80;7.20;;;16.00;99.90;;;;;;5019059;28;20479;-58
2023/09/06 05:52:58;;;;;;;12.10;7.63;;;16.00;99.90;;;;;;5023536;28;20492;-59
2023/09/06 05:55:26;;;;;;;9.00;7.60;;;16.00;99.90;;;;;;5027618;28;20573;-58
2023/09/06 05:57:54;;;;;;;13.10;7.63;;;16.10;99.90;;;;;;5030616;28;20951;-57
2023/09/06 06:00:22;;;;;;;7.63;7.03;;;16.10;99.90;;;;;;5035271;28;20478;-58
2023/09/06 06:02:51;;;;;;;8.50;7.80;;;16.10;99.90;;;;;;5032561;28;20561;-58
2023/09/06 06:05:19;;;;;;;7.80;7.17;;;16.20;99.90;;;;;;5030888;28;20493;-57
2023/09/06 06:07:48;;;;;;;7.27;6.77;;;16.30;99.90;;;;;;5024559;28;20496;-58
2023/09/06 06:10:17;;;;;;;7.47;6.80;;;16.40;99.90;;;;;;5032534;28;20549;-57
2023/09/06 06:12:45;;;;;;;7.30;6.70;;;16.40;99.90;;;;;;5035206;28;21104;-58
2023/09/06 06:15:15;;;;;;;8.03;7.20;;;16.50;99.90;;;;;;5036487;28;20579;-57
2023/09/06 06:17:43;;;;;;;8.80;7.63;;;16.60;99.90;;;;;;5038254;28;20933;-58
2023/09/06 06:20:13;;;;;;;8.27;7.67;;;16.70;99.90;;;;;;5036609;28;20998;-57
2023/09/06 06:22:42;;;;;;;8.37;7.77;;;16.80;99.90;;;;;;5035631;28;20477;-58
2023/09/06 06:25:12;;;;;;;8.00;7.30;;;17.00;99.90;;;;;;5025212;28;20580;-57
2023/09/06 06:27:40;;;;;;;7.30;6.80;;;17.10;99.90;;;;;;5032956;28;20553;-58
2023/09/06 06:30:11;;;;;;;9.00;8.30;;;17.20;99.90;;;;;;5032746;28;20481;-57
2023/09/06 06:32:39;;;;;;;7.73;7.13;;;17.30;99.90;;;;;;5030378;28;20471;-58
2023/09/06 06:35:11;;;;;;;8.97;7.90;;;17.40;99.90;;;;;;5033967;28;20557;-58
2023/09/06 06:37:39;;;;;;;8.83;8.13;;;17.60;99.90;;;;;;5035784;28;20471;-58
2023/09/06 06:40:09;;;;;;;8.40;7.70;;;17.70;99.90;;;;;;5033775;28;20462;-58
2023/09/06 06:42:39;;;;;;;7.93;7.27;;;17.80;99.90;;;;;;5031285;28;20585;-57
2023/09/06 06:45:09;;;;;;;6.70;6.20;;;17.90;99.90;;;;;;5032682;28;20506;-58
2023/09/06 06:47:37;;;;;;;8.10;7.30;;;18.00;99.90;;;;;;5023772;28;20477;-58
2023/09/06 06:50:06;;;;;;;7.77;7.17;;;18.10;99.90;;;;;;5033179;28;21165;-58
2023/09/06 06:52:36;;;;;;;8.17;7.33;;;18.20;99.90;;;;;;5037920;28;20589;-58
2023/09/06 06:55:04;;;;;;;7.90;7.13;;;18.20;99.90;;;;;;5032291;28;20487;-58
2023/09/06 06:57:35;;;;;;;7.30;6.60;;;18.30;99.90;;;;;;5033492;28;20482;-58
2023/09/06 07:00:06;;;;;;;7.70;6.90;;;18.50;99.90;;;;;;5025763;28;20637;-58
2023/09/06 07:02:35;;;;;;;7.27;6.67;;;18.60;99.90;;;;;;5030739;28;20573;-57
2023/09/06 07:05:03;;;;;;;7.40;6.70;;;18.60;99.90;;;;;;5032480;28;20564;-58
2023/09/06 07:07:31;;;;;;;7.33;6.60;;;18.70;99.90;;;;;;5037560;28;20477;-59
2023/09/06 07:09:59;;;;;;;7.63;7.00;;;18.80;99.90;;;;;;5029673;28;20490;-58
2023/09/06 07:12:27;;;;;;;7.53;6.67;;;18.80;99.90;;;;;;5022331;28;21118;-58
2023/09/06 07:14:55;;;;;;;7.33;6.73;;;18.90;99.90;;;;;;5035786;28;20569;-58
2023/09/06 07:17:24;;;;;;;7.60;6.90;;;19.00;99.90;;;;;;5029883;28;20644;-58
2023/09/06 07:19:53;;;;;;;10.13;6.60;;;19.10;99.90;;;;;;5029610;28;20498;-58
2023/09/06 07:22:21;;;;;;;6.30;5.80;;;19.20;99.90;;;;;;5028409;28;20855;-58
2023/09/06 07:24:49;;;;;;;6.80;6.23;;;19.30;99.90;;;;;;5033952;28;20488;-59
2023/09/06 07:27:17;;;;;;;6.73;6.03;;;19.40;99.90;;;;;;5030016;28;20516;-58
2023/09/06 07:29:45;;;;;;;6.63;6.20;;;19.50;99.90;;;;;;5029730;28;20481;-59
2023/09/06 07:32:13;;;;;;;6.60;5.90;;;19.60;99.90;;;;;;5028186;28;20481;-59
2023/09/06 07:34:42;;;;;;;6.30;5.90;;;19.70;99.90;;;;;;5037779;28;20577;-57
2023/09/06 07:37:11;;;;;;;6.20;5.70;;;19.80;99.90;;;;;;5038216;28;20554;-59
2023/09/06 07:39:39;;;;;;;6.97;6.10;;;19.90;99.90;;;;;;5039246;28;20574;-59
2023/09/06 07:42:07;;;;;;;5.60;5.10;;;20.00;99.90;;;;;;5037319;28;20479;-58
2023/09/06 07:44:35;;;;;;;5.90;5.50;;;20.10;99.90;;;;;;5033499;28;20558;-58
2023/09/06 07:47:04;;;;;;;5.33;4.80;;;20.20;99.90;;;;;;5031409;28;20482;-58
2023/09/06 07:49:32;;;;;;;5.87;5.27;;;20.20;99.90;;;;;;5027086;28;20520;-58
2023/09/06 07:52:04;;;;;;;5.50;5.00;;;20.40;99.90;;;;;;5026957;28;20577;-58
2023/09/06 07:54:33;;;;;;;5.67;5.13;;;20.50;99.90;;;;;;5023557;28;21046;-58
2023/09/06 07:57:01;;;;;;;5.67;5.10;;;20.50;99.90;;;;;;5036944;28;20502;-59
2023/09/06 07:59:29;;;;;;;5.10;4.60;;;20.60;99.90;;;;;;5030785;28;20635;-58
2023/09/06 08:01:57;;;;;;;5.70;4.87;;;20.70;99.90;;;;;;5027821;28;20490;-59
2023/09/06 08:04:25;;;;;;;4.97;4.40;;;20.80;99.90;;;;;;5029726;28;20489;-58
2023/09/06 08:06:55;;;;;;;5.47;4.97;;;20.90;99.90;;;;;;5033000;28;20673;-60
2023/09/06 08:09:25;;;;;;;5.50;4.73;;;21.00;99.90;;;;;;5028795;28;20665;-58
2023/09/06 08:11:53;;;;;;;9.43;5.03;;;21.10;99.90;;;;;;5039140;28;21019;-59
2023/09/06 08:14:21;;;;;;;5.27;4.40;;;21.20;99.90;;;;;;5032647;28;20938;-59
2023/09/06 08:16:49;;;;;;;7.00;4.43;;;21.30;99.90;;;;;;5036253;28;20500;-59
2023/09/06 08:19:17;;;;;;;5.07;4.57;;;21.30;99.90;;;;;;5034643;28;20497;-58
2023/09/06 08:21:45;;;;;;;4.90;4.40;;;21.40;99.90;;;;;;5032850;28;20557;-59
2023/09/06 08:24:13;;;;;;;5.33;4.20;;;21.50;99.90;;;;;;5040223;28;20545;-59
2023/09/06 08:26:42;;;;;;;4.70;4.40;;;21.60;99.90;;;;;;5036565;28;20505;-59
2023/09/06 08:29:11;;;;;;;5.00;4.50;;;21.70;99.90;;;;;;5032999;28;20566;-59
2023/09/06 08:31:39;;;;;;;4.50;4.20;;;21.70;99.90;;;;;;5035110;28;21066;-60
2023/09/06 08:34:08;;;;;;;4.37;3.83;;;21.80;99.90;;;;;;5033967;28;20524;-60
2023/09/06 08:36:37;;;;;;;5.10;4.50;;;21.90;99.90;;;;;;5034307;28;20993;-59
2023/09/06 08:39:06;;;;;;;5.27;4.23;;;22.00;99.90;;;;;;5028438;28;20687;-60
2023/09/06 08:41:34;;;;;;;4.93;4.00;;;22.10;99.90;;;;;;5036414;28;20505;-59
2023/09/06 08:44:06;;;;;;;3.97;3.67;;;22.20;99.90;;;;;;5032785;28;21157;-60
2023/09/06 08:46:39;;;;;;;4.33;3.93;;;22.30;99.90;;;;;;5031985;28;20498;-60
2023/09/06 08:49:09;;;;;;;5.80;3.70;;;22.40;99.90;;;;;;5023832;28;21027;-60
2023/09/06 08:51:39;;;;;;;5.63;3.77;;;22.50;99.90;;;;;;5028864;28;20616;-60
2023/09/06 08:54:07;;;;;;;3.50;3.17;;;22.70;99.90;;;;;;5030026;28;20467;-60
2023/09/06 08:56:36;;;;;;;3.83;3.53;;;22.80;99.90;;;;;;5019223;28;20497;-60
2023/09/06 08:59:06;;;;;;;3.60;3.30;;;23.00;99.90;;;;;;5031713;28;20900;-59
2023/09/06 09:01:37;;;;;;;3.27;2.97;;;23.10;99.90;;;;;;5031595;28;21801;-60
2023/09/06 09:04:06;;;;;;;4.60;3.73;;;23.20;99.90;;;;;;5023189;28;20845;-63
2023/09/06 09:06:34;;;;;;;2.93;2.73;;;23.20;99.90;;;;;;5028400;28;20491;-63
2023/09/06 09:09:17;;;;;;;3.90;3.17;;;23.30;99.90;;;;;;5038602;28;20562;-62
2023/09/06 09:11:46;;;;;;;3.27;3.00;;;23.40;99.90;;;;;;5039303;28;20563;-63
2023/09/06 09:14:23;;;;;;;3.60;2.97;;;23.60;99.90;;;;;;5037896;28;20476;-63
2023/09/06 09:16:55;;;;;;;3.20;2.90;;;23.60;99.90;;;;;;5034167;28;20870;-62
2023/09/06 09:19:24;;;;;;;2.97;2.63;;;23.80;99.90;;;;;;5036460;28;20501;-63
2023/09/06 09:21:52;;;;;;;2.73;2.53;;;23.90;99.90;;;;;;5032369;28;20585;-63
2023/09/06 09:24:28;;;;;;;2.73;2.53;;;24.10;99.90;;;;;;5031450;28;20912;-63
2023/09/06 09:26:57;;;;;;;2.90;2.70;;;24.20;99.90;;;;;;5030672;28;20812;-63
2023/09/06 09:29:28;;;;;;;3.23;2.93;;;24.20;99.90;;;;;;5032422;28;20470;-63
2023/09/06 09:32:02;;;;;;;3.20;2.90;;;24.40;99.90;;;;;;5040248;28;20477;-62
2023/09/06 09:34:31;;;;;;;2.90;2.70;;;24.40;99.90;;;;;;5035905;28;20472;-62
2023/09/06 09:36:59;;;;;;;2.63;2.50;;;24.50;99.90;;;;;;5036296;28;20478;-63
2023/09/06 09:39:28;;;;;;;2.53;2.37;;;24.60;99.90;;;;;;5035444;28;20497;-64
2023/09/06 09:41:58;;;;;;;4.20;2.43;;;24.70;99.90;;;;;;5029615;28;20474;-62
2023/09/06 09:44:28;;;;;;;2.40;2.20;;;24.80;99.90;;;;;;5034808;28;20472;-62
2023/09/06 09:46:57;;;;;;;2.90;2.70;;;24.90;99.90;;;;;;5034151;28;20811;-63
2023/09/06 09:49:28;;;;;;;2.80;2.47;;;25.00;99.90;;;;;;5025712;28;20565;-62
2023/09/06 09:51:56;;;;;;;2.40;2.20;;;25.10;99.90;;;;;;5034768;28;20490;-63
2023/09/06 09:54:25;;;;;;;2.67;2.30;;;25.20;99.90;;;;;;5030768;28;20528;-63
2023/09/06 09:57:03;;;;;;;2.83;2.50;;;25.30;99.90;;;;;;5039353;28;20516;-61
2023/09/06 09:59:34;;;;;;;4.20;2.30;;;25.40;99.90;;;;;;5034503;28;20550;-64
2023/09/06 10:02:04;;;;;;;3.90;2.27;;;25.50;99.90;;;;;;5038319;28;20471;-61
2023/09/06 10:04:37;;;;;;;2.70;2.43;;;25.60;99.90;;;;;;5029448;28;20990;-62
2023/09/06 10:07:08;;;;;;;3.00;2.67;;;25.70;99.90;;;;;;5033517;28;20481;-62
2023/09/06 10:09:39;;;;;;;2.37;2.00;;;25.70;99.90;;;;;;5033787;28;20475;-62
2023/09/06 10:12:10;;;;;;;2.67;2.50;;;25.80;99.90;;;;;;5032070;28;20475;-62
2023/09/06 10:14:42;;;;;;;2.43;2.20;;;25.90;99.90;;;;;;5031916;28;20549;-64
2023/09/06 10:17:12;;;;;;;4.63;1.93;;;26.00;99.90;;;;;;5025906;28;20935;-61
2023/09/06 10:19:42;;;;;;;2.37;2.17;;;26.00;99.90;;;;;;5037815;28;20478;-62
2023/09/06 10:22:22;;;;;;;2.43;2.23;;;26.10;99.90;;;;;;5037662;28;20535;-61
2023/09/06 10:24:53;;;;;;;1.90;1.80;;;26.10;99.90;;;;;;5033597;28;20553;-62
2023/09/06 10:27:21;;;;;;;2.00;1.70;;;26.30;99.90;;;;;;5029145;28;20947;-63
2023/09/06 10:29:53;;;;;;;1.73;1.60;;;26.40;99.90;;;;;;5036779;28;20476;-62
2023/09/06 10:32:41;;;;;;;1.63;1.53;;;26.50;99.90;;;;;;5027269;28;20479;-62
2023/09/06 10:35:25;;;;;;;2.40;2.07;;;26.50;99.90;;;;;;5032523;28;21086;-63
2023/09/06 10:38:07;;;;;;;2.70;2.50;;;26.60;99.90;;;;;;5026713;28;20474;-62
2023/09/06 10:41:07;;;;;;;2.20;2.00;;;26.70;99.90;;;;;;5025563;28;20490;-64
2023/09/06 10:44:01;;;;;;;1.67;1.57;;;26.80;99.90;;;;;;5031946;28;20649;-62
2023/09/06 10:46:32;;;;;;;2.00;1.90;;;27.00;99.90;;;;;;5035998;28;20490;-61
2023/09/06 10:49:19;;;;;;;2.43;1.90;;;27.10;99.90;;;;;;5037697;28;20528;-63
2023/09/06 10:52:00;;;;;;;1.70;1.60;;;27.20;99.90;;;;;;5028131;28;20519;-61
2023/09/06 10:54:38;;;;;;;2.10;1.90;;;27.30;99.90;;;;;;5027962;28;20478;-61
2023/09/06 10:57:07;;;;;;;2.20;2.00;;;27.40;99.90;;;;;;5032768;28;20496;-63
2023/09/06 10:59:40;;;;;;;1.93;1.83;;;27.50;99.90;;;;;;5026635;28;20931;-61
2023/09/06 11:02:11;;;;;;;2.47;2.27;;;27.60;99.90;;;;;;5022229;28;20490;-64
2023/09/06 11:04:39;;;;;;;1.90;1.80;;;27.60;99.90;;;;;;5035854;28;20478;-63
2023/09/06 11:07:10;;;;;;;2.20;2.00;;;27.70;99.90;;;;;;5029667;28;20584;-64
2023/09/06 11:09:43;;;;;;;1.70;1.60;;;27.80;99.90;;;;;;5032385;28;20476;-63
2023/09/06 11:12:12;;;;;;;2.40;2.20;;;28.00;99.90;;;;;;5022946;28;20563;-64
2023/09/06 11:14:41;;;;;;;2.40;2.20;;;28.10;99.90;;;;;;5014506;28;20475;-64
2023/09/06 11:17:22;;;;;;;2.53;2.00;;;28.20;99.90;;;;;;5026587;28;20563;-65
2023/09/06 11:19:51;;;;;;;1.73;1.63;;;28.30;99.90;;;;;;5021453;28;20475;-66
2023/09/06 11:22:20;;;;;;;2.13;1.93;;;28.30;99.90;;;;;;5024501;28;21162;-64
2023/09/06 11:24:48;;;;;;;2.57;1.90;;;28.30;99.90;;;;;;5029557;28;20509;-63
2023/09/06 11:27:18;;;;;;;3.10;1.67;;;28.40;99.90;;;;;;5030950;28;21042;-65
2023/09/06 11:29:46;;;;;;;1.77;1.67;;;28.50;99.90;;;;;;5040775;28;20549;-64
2023/09/06 11:32:17;;;;;;;1.70;1.60;;;28.60;99.90;;;;;;5035482;28;20509;-64
2023/09/06 11:34:45;;;;;;;2.60;1.70;;;28.80;99.90;;;;;;5031168;28;20494;-63
2023/09/06 11:37:15;;;;;;;1.87;1.77;;;28.90;99.90;;;;;;5031945;28;20474;-63
2023/09/06 11:39:45;;;;;;;2.10;1.90;;;29.00;99.90;;;;;;5034679;28;21266;-63
2023/09/06 11:42:15;;;;;;;2.10;1.70;;;29.10;99.40;;;;;;5036250;28;20957;-61
2023/09/06 11:44:47;;;;;;;1.83;1.73;;;29.30;98.20;;;;;;5028204;28;20651;-61
2023/09/06 11:47:20;;;;;;;2.43;1.70;;;29.50;97.60;;;;;;5032432;28;20471;-60
2023/09/06 11:49:49;;;;;;;1.67;1.57;;;29.60;94.90;;;;;;5034198;28;20555;-61
2023/09/06 11:52:19;;;;;;;2.07;1.97;;;29.70;98.00;;;;;;5037808;28;20458;-61
2023/09/06 11:54:50;;;;;;;2.10;1.93;;;29.80;94.70;;;;;;5036274;28;20501;-62
2023/09/06 11:57:23;;;;;;;1.83;1.60;;;29.90;93.30;;;;;;5031926;28;20502;-61
2023/09/06 11:59:53;;;;;;;2.20;1.87;;;30.00;91.80;;;;;;5037892;28;20481;-62
2023/09/06 12:02:27;;;;;;;1.80;1.60;;;30.10;93.90;;;;;;5036461;28;20490;-62
2023/09/06 12:05:03;;;;;;;1.93;1.80;;;30.30;95.00;;;;;;5031078;28;20548;-59
2023/09/06 12:07:32;;;;;;;1.87;1.77;;;30.40;93.60;;;;;;5033328;28;20549;-62
2023/09/06 12:10:03;;;;;;;2.30;1.90;;;30.50;90.90;;;;;;5035272;28;21116;-62
2023/09/06 12:12:39;;;;;;;2.27;2.07;;;30.60;90.50;;;;;;5023132;28;20564;-60
2023/09/06 12:15:13;;;;;;;2.10;2.00;;;30.70;93.40;;;;;;5031706;28;21040;-59
2023/09/06 12:17:43;;;;;;;4.60;2.00;;;30.90;96.00;;;;;;5037180;28;20474;-59
2023/09/06 12:20:18;;;;;;;1.80;1.70;;;31.10;92.70;;;;;;5034421;28;20507;-59
2023/09/06 12:22:46;;;;;;;1.90;1.80;;;31.20;90.50;;;;;;5027580;28;20573;-60
2023/09/06 12:25:15;;;;;;;2.47;2.27;;;31.40;92.60;;;;;;5025724;28;20501;-59
2023/09/06 12:27:43;;;;;;;2.13;1.93;;;31.50;92.80;;;;;;5035847;28;20557;-60
2023/09/06 12:30:14;;;;;;;2.40;2.13;;;31.70;91.80;;;;;;5024878;28;21293;-59
2023/09/06 12:32:44;;;;;;;2.00;1.90;;;31.80;87.90;;;;;;5034899;28;20477;-59
2023/09/06 12:35:13;;;;;;;3.70;2.13;;;32.00;85.30;;;;;;5031870;28;20482;-60
2023/09/06 12:37:43;;;;;;;2.70;2.50;;;32.10;85.90;;;;;;5040677;28;20463;-60
2023/09/06 12:40:13;;;;;;;3.10;2.13;;;32.30;87.80;;;;;;5033619;28;20864;-60
2023/09/06 12:42:43;;;;;;;2.33;2.23;;;32.40;82.20;;;;;;5031380;28;20498;-60
2023/09/06 12:45:20;;;;;;;3.43;2.07;;;32.50;80.00;;;;;;5022388;28;20500;-59
2023/09/06 12:47:49;;;;;;;2.33;2.00;;;32.60;79.70;;;;;;5032857;28;20470;-61
2023/09/06 12:50:17;;;;;;;2.10;2.00;;;32.80;84.00;;;;;;5034819;28;20558;-60
2023/09/06 12:52:45;;;;;;;2.10;2.00;;;33.00;79.10;;;;;;5033906;28;20467;-60
2023/09/06 12:55:13;;;;;;;4.53;2.10;;;33.10;73.70;;;;;;5027239;28;20494;-61
2023/09/06 12:57:42;;;;;;;1.93;1.83;;;33.30;71.00;;;;;;5032081;28;21018;-60
2023/09/06 13:00:11;;;;;;;2.13;1.93;;;33.40;67.30;;;;;;5022304;28;20466;-60